MSC Chiara — H3RT — position and weather

sailwx.info

Track history (hours):
 
Tides and Currents Weather Stations Pressure Air Temp Water Temp Dewpoint Dewpoint Depression Visibility Wind Speed Wind Dir Waves Ship Positions

MSC Chiara

Last reported at 2015-Jan-27 12:09 UTC. Time now 2015-Jan-30 00:31 UTC.
Position S 29°24' E 031°43'.

Length 197 m; draft 12 m.

Type: Ship (hazmat cat A). MMSI: 352398000.

Date/timePositionNaut miles runAvg speedWind from/ knotsBaromVisibWave heightAir tempDewpointWater temp
2015-Jan-27 12:09S 29°24' E 031°43'914.9
2015-Jan-27 11:33S 29°31' E 031°36'1514.9
2015-Jan-27 10:33S 29°42' E 031°24'1414.4
2015-Jan-27 09:33S 29°49' E 031°10'8 7.6
2015-Jan-27 08:33S 29°53' E 031°02'1 0.8
2015-Jan-27 07:34S 29°53' E 031°01'0 0.0
2015-Jan-27 06:33S 29°53' E 031°01'0 0.0
2015-Jan-27 05:33S 29°53' E 031°01'0 0.0
2015-Jan-27 03:26S 29°53' E 031°01'0 0.0
2015-Jan-27 02:31S 29°53' E 031°01'0 0.0
2015-Jan-27 00:31S 29°53' E 031°01'0 0.0
2015-Jan-26 23:24S 29°53' E 031°01'0 0.0
2015-Jan-26 22:30S 29°53' E 031°01'0 0.0
2015-Jan-26 21:23S 29°53' E 031°01'0 0.0
2015-Jan-26 20:33S 29°53' E 031°01'0 0.0
2015-Jan-26 19:32S 29°53' E 031°01'0 0.0
2015-Jan-26 18:32S 29°53' E 031°01'0 0.0
2015-Jan-26 17:19S 29°53' E 031°01'0 0.0
2015-Jan-26 16:31S 29°53' E 031°01'0 0.0
2015-Jan-26 15:31S 29°53' E 031°01'0 0.0
2015-Jan-26 14:18S 29°53' E 031°01'0 0.0
2015-Jan-26 13:30S 29°53' E 031°01'0 0.0
2015-Jan-26 12:29S 29°53' E 031°01'0 0.0
2015-Jan-26 11:29S 29°53' E 031°01'0 0.0
2015-Jan-26 10:29S 29°53' E 031°01'0 0.0
2015-Jan-26 09:28S 29°53' E 031°01'0 0.0
2015-Jan-26 08:28S 29°53' E 031°01'0 0.0
2015-Jan-26 07:03S 29°53' E 031°01'0 0.0
2015-Jan-26 05:32S 29°53' E 031°01'0 0.0
2015-Jan-26 02:31S 29°53' E 031°01'0 0.0
2015-Jan-25 22:05S 29°53' E 031°01'0 0.0
2015-Jan-25 20:22S 29°53' E 031°01'0 0.0
2015-Jan-25 19:22S 29°53' E 031°01'0 0.0
2015-Jan-25 15:32S 29°53' E 031°01'0 0.0
2015-Jan-25 14:32S 29°53' E 031°01'0 0.0
2015-Jan-25 13:31S 29°53' E 031°01'0 0.0
2015-Jan-25 10:12S 29°53' E 031°01'0 0.0
2015-Jan-25 09:12S 29°53' E 031°01'0 0.0
2015-Jan-24 14:32S 29°53' E 031°01'6 6.1
2015-Jan-24 13:34S 29°48' E 031°06'7 7.0
2015-Jan-24 12:34S 29°42' E 031°09'4 3.5
2015-Jan-24 11:32S 29°39' E 031°11'0 0.0
2015-Jan-24 10:32S 29°39' E 031°11'0 0.0
2015-Jan-24 09:32S 29°39' E 031°11'0 0.0
2015-Jan-24 07:19S 29°39' E 031°11'0 0.0
2015-Jan-24 06:30S 29°39' E 031°11'0 0.0
2015-Jan-24 05:30S 29°39' E 031°11'0 0.0
2015-Jan-24 04:29S 29°39' E 031°11'0 0.0
2015-Jan-24 01:28S 29°39' E 031°11'0 0.0
2015-Jan-23 20:32S 29°39' E 031°11'0 0.0
2015-Jan-23 19:31S 29°39' E 031°11'0 0.0
2015-Jan-23 17:31S 29°39' E 031°11'0 0.0
2015-Jan-23 16:30S 29°39' E 031°11'0 0.0
2015-Jan-23 15:30S 29°39' E 031°11'0 0.0
2015-Jan-23 14:29S 29°39' E 031°11'0 0.0
2015-Jan-23 13:29S 29°39' E 031°11'0 0.0
2015-Jan-23 12:28S 29°39' E 031°11'0 0.0
2015-Jan-23 11:28S 29°39' E 031°11'0 0.0
2015-Jan-23 10:28S 29°39' E 031°11'0 0.0
2015-Jan-23 09:27S 29°39' E 031°11'0 0.0
2015-Jan-23 08:33S 29°39' E 031°11'0 0.0
2015-Jan-23 07:32S 29°39' E 031°11'0 0.0
2015-Jan-23 06:32S 29°39' E 031°11'0 0.0
2015-Jan-23 05:31S 29°39' E 031°11'0 0.0
2015-Jan-23 04:31S 29°39' E 031°11'0 0.0
2015-Jan-22 23:29S 29°39' E 031°11'0 0.0
2015-Jan-22 22:28S 29°39' E 031°11'0 0.0
2015-Jan-22 21:28S 29°39' E 031°11'6 6.1
2015-Jan-22 20:33S 29°37' E 031°17'  
Track history (hours):
 
Tides and Currents Weather Stations Pressure Air Temp Water Temp Dewpoint Dewpoint Depression Visibility Wind Speed Wind Dir Waves Ship Positions

MSC Chiara

Last reported at 2015-Jan-27 12:09 UTC. Time now 2015-Jan-30 00:31 UTC.
Position S 29°24' E 031°43'.

Length 197 m; draft 12 m.

Type: Ship (hazmat cat A). MMSI: 352398000.

Date/timePositionNaut miles runAvg speedWind from/ knotsBaromVisibWave heightAir tempDewpointWater temp
2015-Jan-27 12:09S 29°24' E 031°43'914.9
2015-Jan-27 11:33S 29°31' E 031°36'1514.9
2015-Jan-27 10:33S 29°42' E 031°24'1414.4
2015-Jan-27 09:33S 29°49' E 031°10'8 7.6
2015-Jan-27 08:33S 29°53' E 031°02'1 0.8
2015-Jan-27 07:34S 29°53' E 031°01'0 0.0
2015-Jan-27 06:33S 29°53' E 031°01'0 0.0
2015-Jan-27 05:33S 29°53' E 031°01'0 0.0
2015-Jan-27 03:26S 29°53' E 031°01'0 0.0
2015-Jan-27 02:31S 29°53' E 031°01'0 0.0
2015-Jan-27 00:31S 29°53' E 031°01'0 0.0
2015-Jan-26 23:24S 29°53' E 031°01'0 0.0
2015-Jan-26 22:30S 29°53' E 031°01'0 0.0
2015-Jan-26 21:23S 29°53' E 031°01'0 0.0
2015-Jan-26 20:33S 29°53' E 031°01'0 0.0
2015-Jan-26 19:32S 29°53' E 031°01'0 0.0
2015-Jan-26 18:32S 29°53' E 031°01'0 0.0
2015-Jan-26 17:19S 29°53' E 031°01'0 0.0
2015-Jan-26 16:31S 29°53' E 031°01'0 0.0
2015-Jan-26 15:31S 29°53' E 031°01'0 0.0
2015-Jan-26 14:18S 29°53' E 031°01'0 0.0
2015-Jan-26 13:30S 29°53' E 031°01'0 0.0
2015-Jan-26 12:29S 29°53' E 031°01'0 0.0
2015-Jan-26 11:29S 29°53' E 031°01'0 0.0
2015-Jan-26 10:29S 29°53' E 031°01'0 0.0
2015-Jan-26 09:28S 29°53' E 031°01'0 0.0
2015-Jan-26 08:28S 29°53' E 031°01'0 0.0
2015-Jan-26 07:03S 29°53' E 031°01'0 0.0
2015-Jan-26 05:32S 29°53' E 031°01'0 0.0
2015-Jan-26 02:31S 29°53' E 031°01'0 0.0
2015-Jan-25 22:05S 29°53' E 031°01'0 0.0
2015-Jan-25 20:22S 29°53' E 031°01'0 0.0
2015-Jan-25 19:22S 29°53' E 031°01'0 0.0
2015-Jan-25 15:32S 29°53' E 031°01'0 0.0
2015-Jan-25 14:32S 29°53' E 031°01'0 0.0
2015-Jan-25 13:31S 29°53' E 031°01'0 0.0
2015-Jan-25 10:12S 29°53' E 031°01'0 0.0
2015-Jan-25 09:12S 29°53' E 031°01'0 0.0
2015-Jan-24 14:32S 29°53' E 031°01'6 6.1
2015-Jan-24 13:34S 29°48' E 031°06'7 7.0
2015-Jan-24 12:34S 29°42' E 031°09'4 3.5
2015-Jan-24 11:32S 29°39' E 031°11'0 0.0
2015-Jan-24 10:32S 29°39' E 031°11'0 0.0
2015-Jan-24 09:32S 29°39' E 031°11'0 0.0
2015-Jan-24 07:19S 29°39' E 031°11'0 0.0
2015-Jan-24 06:30S 29°39' E 031°11'0 0.0
2015-Jan-24 05:30S 29°39' E 031°11'0 0.0
2015-Jan-24 04:29S 29°39' E 031°11'0 0.0
2015-Jan-24 01:28S 29°39' E 031°11'0 0.0
2015-Jan-23 20:32S 29°39' E 031°11'0 0.0
2015-Jan-23 19:31S 29°39' E 031°11'0 0.0
2015-Jan-23 17:31S 29°39' E 031°11'0 0.0
2015-Jan-23 16:30S 29°39' E 031°11'0 0.0
2015-Jan-23 15:30S 29°39' E 031°11'0 0.0
2015-Jan-23 14:29S 29°39' E 031°11'0 0.0
2015-Jan-23 13:29S 29°39' E 031°11'0 0.0
2015-Jan-23 12:28S 29°39' E 031°11'0 0.0
2015-Jan-23 11:28S 29°39' E 031°11'0 0.0
2015-Jan-23 10:28S 29°39' E 031°11'0 0.0
2015-Jan-23 09:27S 29°39' E 031°11'0 0.0
2015-Jan-23 08:33S 29°39' E 031°11'0 0.0
2015-Jan-23 07:32S 29°39' E 031°11'0 0.0
2015-Jan-23 06:32S 29°39' E 031°11'0 0.0
2015-Jan-23 05:31S 29°39' E 031°11'0 0.0
2015-Jan-23 04:31S 29°39' E 031°11'0 0.0
2015-Jan-22 23:29S 29°39' E 031°11'0 0.0
2015-Jan-22 22:28S 29°39' E 031°11'0 0.0
2015-Jan-22 21:28S 29°39' E 031°11'6 6.1
2015-Jan-22 20:33S 29°37' E 031°17'  

Dump ship's entire track history